createdAt,value
2017-05-22T00:00:20.848Z,7.10
2017-05-22T00:02:48.799Z,6.34
2017-05-22T00:05:17.109Z,7.12
2017-05-22T00:07:45.464Z,9.56
2017-05-22T00:10:14.148Z,6.72
2017-05-22T00:12:42.461Z,7.10
2017-05-22T00:15:10.494Z,7.24
2017-05-22T00:17:38.843Z,7.52
2017-05-22T00:20:06.784Z,8.08
2017-05-22T00:22:34.773Z,7.54
2017-05-22T00:25:03.082Z,9.88
2017-05-22T00:27:31.021Z,7.76
2017-05-22T00:29:59.383Z,10.14
2017-05-22T00:32:27.701Z,8.14
2017-05-22T00:34:56.024Z,8.80
2017-05-22T00:37:24.761Z,9.26
2017-05-22T00:39:53.684Z,10.54
2017-05-22T00:42:21.648Z,9.24
2017-05-22T00:44:50.781Z,8.44
2017-05-22T00:47:19.117Z,9.78
2017-05-22T00:49:47.073Z,9.26
2017-05-22T00:52:15.452Z,7.94
2017-05-22T00:54:44.510Z,9.24
2017-05-22T00:57:12.464Z,10.08
2017-05-22T00:59:40.465Z,7.82
2017-05-22T01:02:08.796Z,16.02
2017-05-22T01:04:36.749Z,10.02
2017-05-22T01:07:05.473Z,8.96
2017-05-22T01:09:33.790Z,8.34
2017-05-22T01:12:02.110Z,9.48
2017-05-22T01:14:30.524Z,9.38
2017-05-22T01:16:59.428Z,8.88
2017-05-22T01:19:28.116Z,9.00
2017-05-22T01:21:56.484Z,8.24
2017-05-22T01:24:25.558Z,8.90
2017-05-22T01:26:53.897Z,8.82
2017-05-22T01:29:21.913Z,8.78
2017-05-22T01:31:49.892Z,11.48
2017-05-22T01:34:18.227Z,8.00
2017-05-22T01:36:46.212Z,9.22
2017-05-22T01:39:14.524Z,9.30
2017-05-22T01:41:42.469Z,9.54
2017-05-22T01:44:10.475Z,10.06
2017-05-22T01:46:38.441Z,11.06
2017-05-22T01:49:06.750Z,9.74
2017-05-22T01:51:35.128Z,10.66
2017-05-22T01:54:03.076Z,9.38
2017-05-22T01:56:31.385Z,9.24
2017-05-22T01:58:59.785Z,8.82
2017-05-22T02:01:28.473Z,8.48
2017-05-22T02:03:57.529Z,7.94
2017-05-22T02:06:25.549Z,8.92
2017-05-22T02:08:53.893Z,8.58
2017-05-22T02:11:21.853Z,8.28
2017-05-22T02:13:49.869Z,8.08
2017-05-22T02:16:17.889Z,8.66
2017-05-22T02:18:46.205Z,9.00
2017-05-22T02:21:14.209Z,7.62
2017-05-22T02:23:42.154Z,8.12
2017-05-22T02:26:10.481Z,7.08
2017-05-22T02:28:38.474Z,7.02
2017-05-22T02:31:06.797Z,7.40
2017-05-22T02:33:34.740Z,6.98
2017-05-22T02:36:03.105Z,6.86
2017-05-22T02:38:31.421Z,6.68
2017-05-22T02:41:00.324Z,8.40
2017-05-22T02:43:29.282Z,5.96
2017-05-22T02:45:57.233Z,6.20
2017-05-22T02:48:25.570Z,6.40
2017-05-22T02:50:53.596Z,6.28
2017-05-22T02:53:21.582Z,5.64
2017-05-22T02:55:49.946Z,5.56
2017-05-22T02:58:17.946Z,5.24
2017-05-22T03:00:46.256Z,5.12
2017-05-22T03:03:14.214Z,5.42
2017-05-22T03:05:43.089Z,4.88
2017-05-22T03:08:11.407Z,5.24
2017-05-22T03:10:39.719Z,5.62
2017-05-22T03:13:08.812Z,6.64
2017-05-22T03:15:36.757Z,5.40
2017-05-22T03:18:05.073Z,4.92
2017-05-22T03:20:33.437Z,5.32
2017-05-22T03:23:01.757Z,4.78
2017-05-22T03:25:29.705Z,4.36
2017-05-22T03:27:58.113Z,4.54
2017-05-22T03:30:26.103Z,5.10
2017-05-22T03:32:54.452Z,4.90
2017-05-22T03:35:22.834Z,5.78
2017-05-22T03:37:51.549Z,5.78
2017-05-22T03:40:19.861Z,4.84
2017-05-22T03:42:47.856Z,4.96
2017-05-22T03:45:15.804Z,4.40
2017-05-22T03:47:44.704Z,5.00
2017-05-22T03:50:13.065Z,5.04
2017-05-22T03:52:41.969Z,5.26
2017-05-22T03:55:09.516Z,6.14
2017-05-22T03:57:37.877Z,6.58
2017-05-22T04:00:06.933Z,6.02
2017-05-22T04:02:35.246Z,5.06
2017-05-22T04:05:03.609Z,5.60
2017-05-22T04:07:31.568Z,6.76
2017-05-22T04:09:59.890Z,5.88
2017-05-22T04:12:28.858Z,7.36
2017-05-22T04:14:57.191Z,6.00
2017-05-22T04:17:25.533Z,5.62
2017-05-22T04:19:53.557Z,5.46
2017-05-22T04:22:21.507Z,6.52
2017-05-22T04:24:49.828Z,4.90
2017-05-22T04:27:17.821Z,10.36
2017-05-22T04:29:45.778Z,8.20
2017-05-22T04:32:14.096Z,5.90
2017-05-22T04:34:42.109Z,6.30
2017-05-22T04:37:10.445Z,6.48
2017-05-22T04:39:38.772Z,7.24
2017-05-22T04:42:07.129Z,7.16
2017-05-22T04:44:35.817Z,6.82
2017-05-22T04:47:04.720Z,7.02
2017-05-22T04:49:33.821Z,7.70
2017-05-22T04:52:02.133Z,7.92
2017-05-22T04:54:30.076Z,7.12
2017-05-22T04:56:58.437Z,7.62
2017-05-22T04:59:27.174Z,6.26
2017-05-22T05:01:55.861Z,7.58
2017-05-22T05:04:24.260Z,7.92
2017-05-22T05:06:53.180Z,7.26
2017-05-22T05:11:56.696Z,6.98
2017-05-22T05:14:25.018Z,6.06
2017-05-22T05:16:53.353Z,8.24
2017-05-22T05:19:22.471Z,7.64
2017-05-22T05:21:50.427Z,7.72
2017-05-22T05:24:18.741Z,6.50
2017-05-22T05:26:46.749Z,7.04
2017-05-22T05:29:15.429Z,7.02
2017-05-22T05:31:43.740Z,7.64
2017-05-22T05:34:11.732Z,7.12
2017-05-22T05:36:40.063Z,7.36
2017-05-22T05:39:09.093Z,10.32
2017-05-22T05:41:38.043Z,7.54
2017-05-22T05:44:06.937Z,6.66
2017-05-22T05:46:35.254Z,7.18
2017-05-22T05:49:03.637Z,7.20
2017-05-22T05:51:31.585Z,7.74
2017-05-22T05:53:59.898Z,6.96
2017-05-22T05:56:27.900Z,7.78
2017-05-22T05:58:56.225Z,9.62
2017-05-22T06:01:24.180Z,7.76
2017-05-22T06:03:52.203Z,7.50
2017-05-22T06:06:20.913Z,7.68
2017-05-22T06:08:49.225Z,7.32
2017-05-22T06:11:17.222Z,7.60
2017-05-22T06:13:45.532Z,6.88
2017-05-22T06:16:13.477Z,6.94
2017-05-22T06:18:41.845Z,7.66
2017-05-22T06:21:10.173Z,6.78
2017-05-22T06:23:39.237Z,9.76
2017-05-22T06:26:07.273Z,7.34
2017-05-22T06:28:35.217Z,7.26
2017-05-22T06:31:03.532Z,7.52
2017-05-22T06:33:31.549Z,10.08
2017-05-22T06:35:59.489Z,7.50
2017-05-22T06:38:27.796Z,7.52
2017-05-22T06:40:56.181Z,8.82
2017-05-22T06:43:24.137Z,8.00
2017-05-22T06:45:52.475Z,10.48
2017-05-22T06:48:21.440Z,9.80
2017-05-22T06:50:50.341Z,12.12
2017-05-22T06:53:19.036Z,10.20
2017-05-22T06:55:47.396Z,9.84
2017-05-22T06:58:15.705Z,9.66
2017-05-22T07:00:44.025Z,14.30
2017-05-22T07:03:12.785Z,12.18
2017-05-22T07:05:41.112Z,11.24
2017-05-22T07:08:09.086Z,16.16
2017-05-22T07:10:37.084Z,13.22
2017-05-22T07:13:05.404Z,7.70
2017-05-22T07:15:33.344Z,13.80
2017-05-22T07:18:01.716Z,9.26
2017-05-22T07:20:29.652Z,7.42
2017-05-22T07:22:57.965Z,6.38
2017-05-22T07:25:26.341Z,10.74
2017-05-22T07:27:54.298Z,9.56
2017-05-22T07:30:22.264Z,6.30
2017-05-22T07:32:51.030Z,10.62
2017-05-22T07:35:18.986Z,15.04
2017-05-22T07:37:47.297Z,6.58
2017-05-22T07:40:15.659Z,6.10
2017-05-22T07:42:43.610Z,12.46
2017-05-22T07:45:11.936Z,5.04
2017-05-22T07:47:41.047Z,24.92
2017-05-22T07:50:09.009Z,28.18
2017-05-22T07:52:36.960Z,15.70
2017-05-22T07:55:05.321Z,12.56
2017-05-22T07:57:33.268Z,18.14
2017-05-22T08:00:01.593Z,6.44
2017-05-22T08:02:29.602Z,9.74
2017-05-22T08:04:57.922Z,11.44
2017-05-22T08:07:25.884Z,6.60
2017-05-22T08:09:54.258Z,5.80
2017-05-22T08:12:22.958Z,6.08
2017-05-22T08:14:50.925Z,5.78
2017-05-22T08:17:18.957Z,8.22
2017-05-22T08:19:47.278Z,12.82
2017-05-22T08:22:15.593Z,9.14
2017-05-22T08:24:43.588Z,9.30
2017-05-22T08:27:11.910Z,5.54
2017-05-22T08:29:40.620Z,13.24
2017-05-22T08:32:08.993Z,10.80
2017-05-22T08:34:36.937Z,7.92
2017-05-22T08:37:04.902Z,4.70
2017-05-22T08:39:33.270Z,5.88
2017-05-22T08:42:01.214Z,9.38
2017-05-22T08:44:29.525Z,8.74
2017-05-22T08:46:57.901Z,5.76
2017-05-22T08:49:25.857Z,6.40
2017-05-22T08:51:54.180Z,8.08
2017-05-22T08:54:22.566Z,4.60
2017-05-22T08:56:50.504Z,2.92
2017-05-22T08:59:18.825Z,7.42
2017-05-22T09:01:47.181Z,4.88
2017-05-22T09:04:15.500Z,4.10
2017-05-22T09:06:43.456Z,4.42
2017-05-22T09:09:12.552Z,4.46
2017-05-22T09:11:40.512Z,2.60
2017-05-22T09:14:08.877Z,2.62
2017-05-22T09:16:36.856Z,1.94
2017-05-22T09:19:04.801Z,5.12
2017-05-22T09:21:33.104Z,5.02
2017-05-22T09:24:01.139Z,4.94
2017-05-22T09:26:29.457Z,5.98
2017-05-22T09:28:57.772Z,7.20
2017-05-22T09:31:26.158Z,10.08
2017-05-22T09:33:54.121Z,7.72
2017-05-22T09:36:22.449Z,3.84
2017-05-22T09:38:50.840Z,5.54
2017-05-22T09:41:18.782Z,6.84
2017-05-22T09:43:47.682Z,2.96
2017-05-22T09:46:16.034Z,5.92
2017-05-22T09:48:44.341Z,7.74
2017-05-22T09:51:12.284Z,3.60
2017-05-22T09:53:40.650Z,4.04
2017-05-22T09:56:08.618Z,4.68
2017-05-22T09:58:36.946Z,2.84
2017-05-22T10:01:04.935Z,6.58
2017-05-22T10:03:32.873Z,4.72
2017-05-22T10:06:01.184Z,3.68
2017-05-22T10:08:29.179Z,7.78
2017-05-22T10:10:57.488Z,3.62
2017-05-22T10:13:25.836Z,7.18
2017-05-22T10:15:54.216Z,3.38
2017-05-22T10:18:22.180Z,2.50
2017-05-22T10:20:50.501Z,3.32
2017-05-22T10:23:18.912Z,3.50
2017-05-22T10:25:46.844Z,5.32
2017-05-22T10:28:15.153Z,4.52
2017-05-22T10:30:43.542Z,6.58
2017-05-22T10:33:12.216Z,3.24
2017-05-22T10:35:40.547Z,2.16
2017-05-22T10:38:08.548Z,5.90
2017-05-22T10:40:36.873Z,6.94
2017-05-22T10:43:04.821Z,6.32
2017-05-22T10:45:32.830Z,2.02
2017-05-22T10:48:01.149Z,3.80
2017-05-22T10:50:29.084Z,7.06
2017-05-22T10:52:57.440Z,2.62
2017-05-22T10:55:25.764Z,3.58
2017-05-22T10:57:54.086Z,5.84
2017-05-22T11:00:22.092Z,3.36
2017-05-22T11:02:50.412Z,1.40
2017-05-22T11:05:18.732Z,1.80
2017-05-22T11:07:47.854Z,3.56
2017-05-22T11:10:15.797Z,2.46
2017-05-22T11:12:44.112Z,3.08
2017-05-22T11:15:12.129Z,3.64
2017-05-22T11:17:40.445Z,4.34
2017-05-22T11:20:08.392Z,3.40
2017-05-22T11:22:36.780Z,4.72
2017-05-22T11:25:04.720Z,7.08
2017-05-22T11:27:32.652Z,5.28
2017-05-22T11:30:01.005Z,2.10
2017-05-22T11:32:28.944Z,3.20
2017-05-22T11:34:57.257Z,2.20
2017-05-22T11:37:25.629Z,3.86
2017-05-22T11:39:54.321Z,7.50
2017-05-22T11:42:22.285Z,1.74
2017-05-22T11:44:50.341Z,3.04
2017-05-22T11:47:19.405Z,2.14
2017-05-22T11:49:47.721Z,1.78
2017-05-22T11:52:16.100Z,2.00
2017-05-22T11:54:44.049Z,2.44
2017-05-22T11:57:11.992Z,2.10
2017-05-22T11:59:40.370Z,2.92
2017-05-22T12:02:08.694Z,2.02
2017-05-22T12:04:37.013Z,1.90
2017-05-22T12:07:05.373Z,7.30
2017-05-22T12:09:34.271Z,3.62
2017-05-22T12:12:02.952Z,3.60
2017-05-22T12:14:30.961Z,4.08
2017-05-22T12:16:59.272Z,3.02
2017-05-22T12:19:27.581Z,3.80
2017-05-22T12:21:56.568Z,6.60
2017-05-22T12:24:25.476Z,3.14
2017-05-22T12:26:54.186Z,3.44
2017-05-22T12:29:23.430Z,3.60
2017-05-22T12:31:52.521Z,4.72
2017-05-22T12:34:21.600Z,3.60
2017-05-22T12:36:49.961Z,2.32
2017-05-22T12:39:17.905Z,2.08
2017-05-22T12:41:46.220Z,2.56
2017-05-22T12:44:14.206Z,6.94
2017-05-22T12:46:42.152Z,3.34
2017-05-22T12:49:10.480Z,3.06
2017-05-22T12:51:38.469Z,3.20
2017-05-22T12:54:06.781Z,11.06
2017-05-22T12:56:35.088Z,6.70
2017-05-22T12:59:03.078Z,3.52
2017-05-22T13:01:31.384Z,3.54
2017-05-22T13:03:59.696Z,3.38
2017-05-22T13:06:28.060Z,2.70
2017-05-22T13:08:56.029Z,2.74
2017-05-22T13:11:24.952Z,3.00
2017-05-22T13:13:53.685Z,2.36
2017-05-22T13:16:21.644Z,2.20
2017-05-22T13:18:49.584Z,4.46
2017-05-22T13:21:17.973Z,5.66
2017-05-22T13:23:45.917Z,4.40
2017-05-22T13:26:14.224Z,4.88
2017-05-22T13:28:42.216Z,3.28
2017-05-22T13:31:10.170Z,4.58
2017-05-22T13:33:38.484Z,3.30
2017-05-22T13:36:06.507Z,7.62
2017-05-22T13:38:34.828Z,3.06
2017-05-22T13:41:03.720Z,2.62
2017-05-22T13:43:32.659Z,4.52
2017-05-22T13:46:01.713Z,3.44
2017-05-22T13:48:30.023Z,3.46
2017-05-22T13:50:58.012Z,2.70
2017-05-22T13:53:26.338Z,3.02
2017-05-22T13:55:55.409Z,3.20
2017-05-22T13:58:23.781Z,3.34
2017-05-22T14:00:51.750Z,2.52
2017-05-22T14:03:19.712Z,4.08
2017-05-22T14:05:48.105Z,4.04
2017-05-22T14:08:16.049Z,4.32
2017-05-22T14:10:44.360Z,2.64
2017-05-22T14:13:12.369Z,3.68
2017-05-22T14:15:40.327Z,3.70
2017-05-22T14:18:08.646Z,3.08
2017-05-22T14:20:37.369Z,2.80
2017-05-22T14:23:05.697Z,2.70
2017-05-22T14:25:34.015Z,2.86
2017-05-22T14:28:02.004Z,2.68
2017-05-22T14:30:29.971Z,5.80
2017-05-22T14:32:57.917Z,2.66
2017-05-22T14:35:26.403Z,2.68
2017-05-22T14:37:54.399Z,4.36
2017-05-22T14:40:22.732Z,4.10
2017-05-22T14:42:51.873Z,4.04
2017-05-22T14:45:19.824Z,2.74
2017-05-22T14:47:47.762Z,4.44
2017-05-22T14:50:15.748Z,4.10
2017-05-22T14:52:44.061Z,2.62
2017-05-22T14:55:12.021Z,2.96
2017-05-22T14:57:42.401Z,5.14
2017-05-22T15:00:10.735Z,3.66
2017-05-22T15:02:38.684Z,4.42
2017-05-22T15:05:07.049Z,3.06
2017-05-22T15:07:35.364Z,5.72
2017-05-22T15:10:03.673Z,7.50
2017-05-22T15:12:31.674Z,3.94
2017-05-22T15:15:02.241Z,3.36
2017-05-22T15:17:30.185Z,6.02
2017-05-22T15:19:58.584Z,4.70
2017-05-22T15:22:27.370Z,3.20
2017-05-22T15:24:55.364Z,2.82
2017-05-22T15:27:23.738Z,2.50
2017-05-22T15:29:51.707Z,3.56
2017-05-22T15:32:19.661Z,3.48
2017-05-22T15:34:48.013Z,3.02
2017-05-22T15:37:15.948Z,3.46
2017-05-22T15:39:44.277Z,3.14
2017-05-22T15:42:12.657Z,60.16
2017-05-22T15:44:41.548Z,7.40
2017-05-22T15:47:10.459Z,3.62
2017-05-22T15:49:39.197Z,5.68
2017-05-22T15:52:07.141Z,3.86
2017-05-22T15:54:35.481Z,3.08
2017-05-22T15:57:03.880Z,2.82
2017-05-22T15:59:32.194Z,3.10
2017-05-22T16:02:01.253Z,3.84
2017-05-22T16:04:30.209Z,3.42
2017-05-22T16:06:59.261Z,4.24
2017-05-22T16:09:27.573Z,3.36
2017-05-22T16:11:55.581Z,6.30
2017-05-22T16:14:23.657Z,2.86
2017-05-22T16:16:51.635Z,2.90
2017-05-22T16:19:20.169Z,2.40
2017-05-22T16:21:48.484Z,4.52
2017-05-22T16:24:16.437Z,3.74
2017-05-22T16:26:44.815Z,2.52
2017-05-22T16:29:12.772Z,2.30
2017-05-22T16:31:41.109Z,1.98
2017-05-22T16:34:09.481Z,2.40
2017-05-22T16:36:37.420Z,3.20
2017-05-22T16:39:05.748Z,2.96
2017-05-22T16:41:34.856Z,2.72
2017-05-22T16:44:02.796Z,2.40
2017-05-22T16:46:31.692Z,5.02
2017-05-22T16:49:00.073Z,3.92
2017-05-22T16:51:29.133Z,2.34
2017-05-22T16:53:57.459Z,2.20
2017-05-22T16:56:25.461Z,2.28
2017-05-22T16:58:53.805Z,2.44
2017-05-22T17:01:21.756Z,2.80
2017-05-22T17:03:50.532Z,3.38
2017-05-22T17:06:18.480Z,2.72
2017-05-22T17:08:47.400Z,3.14
2017-05-22T17:11:16.716Z,2.38
2017-05-22T17:13:45.032Z,2.76
2017-05-22T17:16:13.383Z,2.94
2017-05-22T17:18:41.392Z,4.04
2017-05-22T17:21:10.293Z,7.20
2017-05-22T17:23:38.611Z,2.46
2017-05-22T17:26:07.001Z,2.82
2017-05-22T17:28:35.320Z,3.08
2017-05-22T17:31:03.633Z,2.40
2017-05-22T17:33:32.009Z,2.70
2017-05-22T17:36:00.335Z,24.26
2017-05-22T17:38:29.338Z,3.50
2017-05-22T17:40:57.723Z,3.22
2017-05-22T17:43:25.710Z,4.38
2017-05-22T17:45:54.067Z,3.30
2017-05-22T17:48:23.318Z,3.58
2017-05-22T17:50:52.408Z,2.72
2017-05-22T17:53:20.757Z,3.02
2017-05-22T17:55:49.704Z,2.30
2017-05-22T17:58:18.424Z,2.60
2017-05-22T18:00:49.783Z,3.52
2017-05-22T18:03:18.744Z,2.44
2017-05-22T18:05:46.703Z,4.30
2017-05-22T18:08:14.652Z,2.46
2017-05-22T18:10:43.409Z,2.46
2017-05-22T18:13:12.367Z,5.20
2017-05-22T18:15:41.061Z,3.32
2017-05-22T18:18:09.062Z,5.42
2017-05-22T18:20:37.378Z,2.46
2017-05-22T18:23:05.329Z,2.00
2017-05-22T18:25:34.068Z,5.20
2017-05-22T18:28:02.022Z,2.48
2017-05-22T18:30:29.976Z,3.08
2017-05-22T18:32:58.779Z,3.14
2017-05-22T18:35:26.750Z,3.02
2017-05-22T18:37:55.092Z,4.54
2017-05-22T18:40:23.115Z,6.76
2017-05-22T18:42:52.198Z,3.48
2017-05-22T18:45:20.593Z,3.62
2017-05-22T18:47:48.592Z,2.78
2017-05-22T18:50:16.536Z,3.62
2017-05-22T18:52:45.249Z,3.56
2017-05-22T18:55:13.621Z,3.34
2017-05-22T18:57:41.933Z,3.20
2017-05-22T19:00:10.993Z,4.92
2017-05-22T19:02:39.385Z,3.02
2017-05-22T19:05:07.337Z,3.28
2017-05-22T19:07:36.408Z,4.14
2017-05-22T19:10:04.897Z,3.78
2017-05-22T19:12:33.968Z,3.28
2017-05-22T19:15:02.285Z,4.70
2017-05-22T19:17:30.670Z,9.44
2017-05-22T19:19:58.637Z,4.32
2017-05-22T19:22:26.989Z,7.08
2017-05-22T19:24:55.383Z,4.48
2017-05-22T19:27:23.348Z,4.82
2017-05-22T19:29:52.456Z,3.54
2017-05-22T19:32:20.471Z,5.84
2017-05-22T19:34:48.825Z,4.12
2017-05-22T19:37:17.733Z,6.28
2017-05-22T19:39:46.837Z,10.12
2017-05-22T19:42:14.792Z,7.84
2017-05-22T19:44:43.119Z,4.82
2017-05-22T19:47:11.120Z,4.82
2017-05-22T19:49:39.436Z,7.50
2017-05-22T19:52:07.771Z,7.04
2017-05-22T19:54:36.150Z,5.78
2017-05-22T19:57:04.094Z,4.12
2017-05-22T19:59:32.780Z,6.38
2017-05-22T20:02:00.787Z,5.18
2017-05-22T20:04:28.750Z,6.30
2017-05-22T20:06:57.715Z,6.82
2017-05-22T20:09:26.116Z,7.16
2017-05-22T20:11:55.038Z,9.04
2017-05-22T20:14:23.968Z,7.96
2017-05-22T20:16:53.105Z,14.84
2017-05-22T20:19:22.035Z,18.26
2017-05-22T20:21:50.734Z,11.48
2017-05-22T20:24:18.761Z,12.36
2017-05-22T20:26:47.081Z,19.84
2017-05-22T20:29:15.036Z,37.76
2017-05-22T20:31:43.400Z,29.64
2017-05-22T20:34:11.725Z,13.46
2017-05-22T20:36:39.672Z,15.84
2017-05-22T20:39:08.035Z,14.18
2017-05-22T20:41:36.936Z,10.28
2017-05-22T20:44:05.828Z,13.70
2017-05-22T20:46:33.842Z,18.50
2017-05-22T20:49:01.789Z,12.44
2017-05-22T20:51:30.101Z,13.32
2017-05-22T20:53:58.090Z,14.70
2017-05-22T20:56:26.996Z,16.12
2017-05-22T20:58:55.921Z,17.56
2017-05-22T21:01:24.677Z,13.42
2017-05-22T21:03:52.664Z,23.98
2017-05-22T21:06:20.615Z,13.34
2017-05-22T21:08:49.000Z,12.44
2017-05-22T21:11:16.937Z,9.52
2017-05-22T21:13:45.257Z,14.48
2017-05-22T21:16:13.608Z,7.46
2017-05-22T21:18:41.948Z,12.44
2017-05-22T21:21:09.924Z,8.10
2017-05-22T21:23:38.385Z,10.78
2017-05-22T21:26:06.333Z,7.90
2017-05-22T21:28:34.648Z,7.90
2017-05-22T21:31:04.073Z,6.26
2017-05-22T21:33:32.013Z,9.96
2017-05-22T21:35:59.964Z,11.48
2017-05-22T21:38:28.356Z,5.84
2017-05-22T21:40:56.703Z,6.72
2017-05-22T21:43:25.054Z,6.92
2017-05-22T21:45:53.486Z,7.08
2017-05-22T21:48:22.573Z,8.08
2017-05-22T21:50:50.905Z,7.98
2017-05-22T21:53:18.909Z,8.48
2017-05-22T21:55:47.225Z,10.68
2017-05-22T21:58:15.542Z,10.30
2017-05-22T22:00:43.956Z,10.58
2017-05-22T22:03:12.281Z,15.86
2017-05-22T22:05:40.238Z,18.86
2017-05-22T22:08:09.380Z,18.28
2017-05-22T22:10:37.709Z,15.16
2017-05-22T22:13:05.664Z,17.08
2017-05-22T22:15:34.032Z,19.22
2017-05-22T22:18:01.984Z,19.08
2017-05-22T22:20:29.929Z,14.12
2017-05-22T22:22:58.665Z,20.32
2017-05-22T22:25:26.989Z,19.40
2017-05-22T22:27:55.335Z,17.22
2017-05-22T22:30:23.741Z,16.78
2017-05-22T22:32:52.817Z,20.64
2017-05-22T22:35:20.790Z,19.44
2017-05-22T22:37:49.165Z,13.00
2017-05-22T22:40:17.494Z,18.74
2017-05-22T22:42:45.815Z,15.54
2017-05-22T22:45:13.832Z,21.18
2017-05-22T22:47:42.161Z,17.80
2017-05-22T22:50:10.502Z,19.58
2017-05-22T22:52:38.523Z,25.70
2017-05-22T22:55:07.581Z,14.52
2017-05-22T22:57:35.896Z,13.00
2017-05-22T23:00:03.937Z,28.00
2017-05-22T23:02:31.888Z,13.42
2017-05-22T23:05:00.202Z,17.04
2017-05-22T23:07:28.234Z,12.74
2017-05-22T23:09:56.329Z,14.10
2017-05-22T23:12:24.298Z,8.42
2017-05-22T23:14:52.719Z,15.68
2017-05-22T23:17:20.687Z,8.44
2017-05-22T23:19:49.033Z,14.54
2017-05-22T23:22:17.423Z,7.98
2017-05-22T23:24:45.737Z,9.40
2017-05-22T23:27:14.061Z,13.06
2017-05-22T23:29:42.091Z,12.10
2017-05-22T23:32:10.413Z,8.86
2017-05-22T23:34:38.377Z,20.66
2017-05-22T23:37:06.764Z,10.62
2017-05-22T23:39:35.827Z,21.32
2017-05-22T23:42:03.777Z,21.50
2017-05-22T23:44:31.797Z,21.70
2017-05-22T23:46:59.748Z,34.38
2017-05-22T23:49:28.073Z,16.08
2017-05-22T23:51:56.910Z,14.56
2017-05-22T23:54:25.267Z,16.82
2017-05-22T23:56:53.629Z,13.50
2017-05-22T23:59:22.811Z,20.52
